Time;durP1;ratioP1;P1;durP2;ratioP2;P2;SDS_P1;SDS_P2;PMS_P1;PMS_P2;Temp;Humidity;BMP_temperature;BMP_pressure;BME280_temperature;BME280_humidity;BME280_pressure;Samples;Min_cycle;Max_cycle;Signal;HPM_P1;HPM_P2
2022/12/08 00:00:29;;;;;;;16.65;9.45;;;;;;;3.24;69.11;99449.50;10430139;28;20052;-66
2022/12/08 00:10:50;;;;;;;17.65;9.75;;;;;;;3.39;68.79;99434.25;10423337;28;20057;-66
2022/12/08 00:15:52;;;;;;;21.25;10.30;;;;;;;3.46;68.53;99438.28;10427161;28;20517;-65
2022/12/08 00:20:57;;;;;;;15.00;9.43;;;;;;;3.36;68.78;99436.09;10440139;28;20382;-66
2022/12/08 00:26:03;;;;;;;17.00;10.10;;;;;;;3.35;68.84;99440.44;10430433;28;20403;-66
2022/12/08 00:31:09;;;;;;;16.38;9.65;;;;;;;3.28;69.13;99427.81;10430061;28;20350;-66
2022/12/08 00:36:13;;;;;;;16.30;9.27;;;;;;;3.25;69.10;99426.19;10447147;28;20057;-66
2022/12/08 00:42:10;;;;;;;17.70;9.52;;;;;;;3.21;69.19;99416.88;10447499;28;20512;-66
2022/12/08 00:46:44;;;;;;;18.38;9.50;;;;;;;3.21;69.02;99419.47;10438727;28;20045;-66
2022/12/08 00:51:46;;;;;;;20.02;9.98;;;;;;;3.30;68.98;99408.75;10432630;28;20580;-66
2022/12/08 00:56:48;;;;;;;19.77;10.27;;;;;;;3.26;68.96;99401.19;10442224;28;20060;-66
2022/12/08 01:01:49;;;;;;;17.17;9.43;;;;;;;3.21;69.07;99406.56;10432445;28;20056;-65
2022/12/08 01:06:51;;;;;;;18.00;9.98;;;;;;;3.04;69.54;99399.44;10433010;28;20086;-65
2022/12/08 01:11:53;;;;;;;15.80;9.63;;;;;;;3.08;69.51;99400.16;10431295;28;20440;-65
2022/12/08 01:16:54;;;;;;;15.82;9.05;;;;;;;3.11;69.38;99404.38;10435231;28;20053;-66
2022/12/08 01:21:56;;;;;;;15.40;9.68;;;;;;;3.11;69.42;99397.44;10450372;28;20052;-66
2022/12/08 01:26:58;;;;;;;17.45;9.68;;;;;;;3.09;69.42;99394.06;10442024;28;20067;-65
2022/12/08 01:31:59;;;;;;;16.13;10.20;;;;;;;3.13;69.45;99397.41;10441889;28;20057;-66
2022/12/08 01:37:01;;;;;;;16.98;10.20;;;;;;;3.10;69.33;99395.78;10431376;28;20060;-65
2022/12/08 01:42:03;;;;;;;16.55;10.50;;;;;;;3.03;69.41;99399.47;10441448;28;20045;-66
2022/12/08 01:47:05;;;;;;;17.15;11.30;;;;;;;3.02;69.59;99397.81;10430811;28;20135;-66
2022/12/08 01:52:23;;;;;;;18.42;10.13;;;;;;;2.92;69.67;99394.72;10431460;28;20049;-66
2022/12/08 01:57:34;;;;;;;18.63;10.10;;;;;;;2.95;69.92;99394.59;10448779;28;20048;-66
2022/12/08 02:02:45;;;;;;;17.02;11.18;;;;;;;2.95;69.73;99389.44;10447317;28;20045;-65
2022/12/08 02:07:48;;;;;;;16.60;10.57;;;;;;;2.97;69.84;99390.22;10436812;28;20567;-65
2022/12/08 02:12:52;;;;;;;20.60;10.88;;;;;;;3.02;69.79;99377.97;10431597;28;20482;-66
2022/12/08 02:18:18;;;;;;;17.08;10.80;;;;;;;3.03;69.86;99369.31;10431780;28;20049;-66
2022/12/08 02:23:42;;;;;;;16.88;10.13;;;;;;;3.05;69.54;99364.94;10428948;28;20071;-65
2022/12/08 02:28:47;;;;;;;15.18;9.90;;;;;;;3.12;69.45;99359.53;10435015;28;20416;-66
2022/12/08 02:33:54;;;;;;;15.43;9.55;;;;;;;3.18;69.12;99354.97;10428841;28;20052;-68
2022/12/08 02:39:07;;;;;;;16.08;10.07;;;;;;;3.24;68.96;99346.97;10431279;28;20044;-67
2022/12/08 02:44:26;;;;;;;12.88;9.13;;;;;;;3.20;68.79;99342.84;10429227;28;20052;-67
2022/12/08 02:49:31;;;;;;;14.93;9.23;;;;;;;3.18;68.98;99341.22;10429200;28;20687;-67
2022/12/08 02:54:35;;;;;;;12.77;8.73;;;;;;;3.26;68.90;99341.75;10430548;28;20485;-67
2022/12/08 03:00:04;;;;;;;13.45;8.48;;;;;;;3.29;68.50;99337.31;10436138;28;20037;-67
2022/12/08 03:05:22;;;;;;;14.70;8.85;;;;;;;3.26;68.61;99331.41;10435125;28;20044;-68
2022/12/08 03:10:47;;;;;;;17.17;9.32;;;;;;;3.27;68.59;99317.59;10440117;28;20934;-67
2022/12/08 03:15:51;;;;;;;14.95;9.48;;;;;;;3.31;68.63;99320.00;10434623;28;20056;-67
2022/12/08 03:20:53;;;;;;;14.63;9.15;;;;;;;3.30;68.84;99312.28;10441121;28;20202;-67
2022/12/08 03:26:23;;;;;;;15.07;9.32;;;;;;;3.28;68.79;99309.78;10435082;28;20044;-67
2022/12/08 03:31:28;;;;;;;14.60;9.07;;;;;;;3.22;68.72;99299.69;10465389;28;20052;-67
2022/12/08 03:36:30;;;;;;;13.90;8.23;;;;;;;3.17;68.80;99300.78;10437210;28;20389;-68
2022/12/08 03:41:32;;;;;;;14.88;8.88;;;;;;;3.20;68.66;99287.72;10434576;28;20520;-67
2022/12/08 03:46:33;;;;;;;15.00;8.52;;;;;;;3.16;68.80;99284.44;10442569;28;20044;-67
2022/12/08 03:51:35;;;;;;;13.98;8.30;;;;;;;3.14;68.69;99278.50;10434721;28;20053;-67
2022/12/08 03:56:38;;;;;;;13.40;8.20;;;;;;;3.08;68.69;99265.81;10434120;28;20053;-68
2022/12/08 04:01:39;;;;;;;15.10;8.88;;;;;;;2.91;69.00;99269.06;10432999;28;20049;-68
2022/12/08 04:06:41;;;;;;;14.73;8.50;;;;;;;2.93;68.87;99261.25;10437538;28;20044;-67
2022/12/08 04:11:43;;;;;;;15.68;8.65;;;;;;;2.95;69.00;99255.13;10434982;28;20060;-67
2022/12/08 04:16:44;;;;;;;14.98;9.25;;;;;;;2.95;69.10;99255.13;10439211;28;20053;-67
2022/12/08 04:21:46;;;;;;;14.88;8.52;;;;;;;2.97;68.79;99247.31;10436173;28;20040;-67
2022/12/08 04:26:49;;;;;;;14.65;8.82;;;;;;;2.88;68.83;99240.78;10464810;28;20045;-68
2022/12/08 04:31:51;;;;;;;13.48;8.15;;;;;;;2.82;68.80;99235.03;10433833;28;20052;-67
2022/12/08 04:36:52;;;;;;;14.35;8.75;;;;;;;2.84;68.90;99234.06;10435055;28;20045;-67
2022/12/08 04:41:54;;;;;;;12.65;8.43;;;;;;;2.78;68.91;99234.31;10434521;28;20045;-67
2022/12/08 04:46:55;;;;;;;13.50;7.82;;;;;;;2.81;68.88;99230.75;10432768;28;20045;-67
2022/12/08 04:51:57;;;;;;;12.85;8.10;;;;;;;2.94;68.65;99237.97;10435014;28;20048;-66
2022/12/08 04:56:59;;;;;;;13.30;7.88;;;;;;;3.01;68.58;99238.53;10438632;28;20082;-66
2022/12/08 05:02:01;;;;;;;12.73;7.32;;;;;;;3.02;68.48;99225.59;10434358;28;20448;-66
2022/12/08 05:07:02;;;;;;;11.07;7.32;;;;;;;3.03;68.36;99227.25;10432412;28;20045;-66
2022/12/08 05:12:04;;;;;;;11.77;7.57;;;;;;;3.11;68.04;99218.38;10434559;28;20052;-66
2022/12/08 05:17:06;;;;;;;11.13;7.53;;;;;;;3.07;68.16;99212.47;10454513;28;20049;-66
2022/12/08 05:22:10;;;;;;;11.85;7.18;;;;;;;3.05;68.04;99222.84;10433172;28;20055;-66
2022/12/08 05:27:12;;;;;;;15.63;9.93;;;;;;;3.08;67.88;99219.31;10449667;28;20053;-66
2022/12/08 05:32:13;;;;;;;55.25;32.05;;;;;;;3.11;68.02;99208.03;10432509;28;20041;-66
2022/12/08 05:37:15;;;;;;;39.40;24.98;;;;;;;3.07;67.92;99209.06;10429932;28;20064;-67
2022/12/08 05:42:17;;;;;;;14.48;9.35;;;;;;;3.10;67.66;99207.19;10435613;28;20056;-66
2022/12/08 05:47:25;;;;;;;11.35;7.47;;;;;;;3.23;67.57;99202.34;10428551;28;20061;-67
2022/12/08 05:52:26;;;;;;;10.30;6.90;;;;;;;3.17;67.44;99202.59;10431605;28;20053;-66
2022/12/08 05:57:28;;;;;;;12.45;7.13;;;;;;;3.17;67.37;99198.28;10430820;28;20385;-67
2022/12/08 06:02:30;;;;;;;13.10;6.80;;;;;;;3.17;67.17;99197.44;10429132;28;20060;-67
2022/12/08 06:07:31;;;;;;;9.63;6.97;;;;;;;3.24;67.20;99188.50;10427586;28;20052;-67
2022/12/08 06:12:33;;;;;;;11.98;7.40;;;;;;;3.29;67.04;99194.34;10430026;28;20393;-66
2022/12/08 06:17:35;;;;;;;13.68;8.05;;;;;;;3.28;66.99;99188.31;10432417;28;20099;-67
2022/12/08 06:22:37;;;;;;;11.75;7.28;;;;;;;3.28;66.87;99190.06;10435823;28;20047;-66
2022/12/08 06:27:38;;;;;;;12.43;7.47;;;;;;;3.22;67.00;99187.75;10427874;28;20401;-67
2022/12/08 06:32:40;;;;;;;12.73;7.30;;;;;;;3.29;66.74;99195.19;10431547;28;20049;-66
2022/12/08 06:37:42;;;;;;;11.63;6.82;;;;;;;3.17;66.94;99198.28;10428146;28;20049;-66
2022/12/08 06:42:43;;;;;;;11.10;7.22;;;;;;;3.16;66.81;99188.84;10435253;28;20040;-66
2022/12/08 06:47:45;;;;;;;11.77;7.60;;;;;;;3.10;67.09;99188.25;10427860;28;20045;-67
2022/12/08 06:52:47;;;;;;;11.85;7.47;;;;;;;3.11;67.23;99188.19;10431451;28;20284;-66
2022/12/08 06:58:05;;;;;;;11.30;7.38;;;;;;;3.07;67.14;99184.03;10427269;28;20111;-66
2022/12/08 07:03:08;;;;;;;11.48;7.43;;;;;;;3.10;67.11;99190.84;10428450;28;20041;-66
2022/12/08 07:08:09;;;;;;;12.93;8.10;;;;;;;3.07;67.35;99187.47;10437656;28;20045;-66
2022/12/08 07:13:11;;;;;;;16.13;8.32;;;;;;;3.11;67.14;99195.13;10428250;28;20049;-65
2022/12/08 07:18:13;;;;;;;11.75;7.88;;;;;;;3.17;66.97;99187.09;10429075;28;20049;-66
2022/12/08 07:23:14;;;;;;;14.38;8.93;;;;;;;3.21;66.95;99189.50;10426159;28;20408;-66
2022/12/08 07:28:16;;;;;;;11.80;7.45;;;;;;;3.10;67.11;99191.69;10430305;28;20048;-65
2022/12/08 07:33:18;;;;;;;12.27;7.53;;;;;;;3.25;66.81;99187.63;10425276;28;20055;-66
2022/12/08 07:38:19;;;;;;;13.45;7.57;;;;;;;3.25;66.57;99180.72;10423457;28;20049;-66
2022/12/08 07:43:22;;;;;;;12.35;7.70;;;;;;;3.27;66.80;99183.22;10426515;28;20452;-67
2022/12/08 07:48:24;;;;;;;17.90;9.18;;;;;;;3.27;66.58;99180.66;10432933;28;20048;-67
2022/12/08 07:53:26;;;;;;;13.77;8.27;;;;;;;3.28;66.60;99185.75;10429682;28;20041;-66
2022/12/08 07:58:27;;;;;;;10.13;6.80;;;;;;;3.43;66.28;99184.25;10425180;28;20072;-70
2022/12/08 08:03:29;;;;;;;11.15;7.40;;;;;;;3.49;66.23;99178.81;10425530;28;20053;-69
2022/12/08 08:08:30;;;;;;;10.65;7.25;;;;;;;3.51;66.31;99179.59;10432329;28;20053;-68
2022/12/08 08:13:33;;;;;;;10.70;7.43;;;;;;;3.61;66.15;99180.88;10431215;28;20337;-69
2022/12/08 08:18:36;;;;;;;10.75;7.63;;;;;;;3.49;66.24;99186.59;10434475;28;20536;-70
2022/12/08 08:23:38;;;;;;;11.38;7.25;;;;;;;3.45;66.33;99185.03;10432248;28;20048;-70
2022/12/08 08:28:40;;;;;;;13.77;7.25;;;;;;;3.55;66.23;99189.75;10423395;28;20056;-69
2022/12/08 08:33:41;;;;;;;10.63;6.97;;;;;;;3.60;66.02;99192.16;10428329;28;20456;-69
2022/12/08 08:38:43;;;;;;;10.57;7.28;;;;;;;3.69;65.87;99186.56;10423324;28;20288;-69
2022/12/08 08:43:45;;;;;;;11.00;6.78;;;;;;;3.75;65.62;99186.28;10421946;28;20370;-69
2022/12/08 08:48:46;;;;;;;12.00;6.75;;;;;;;3.86;65.54;99197.88;10426468;28;20525;-70
2022/12/08 08:53:48;;;;;;;10.57;6.20;;;;;;;3.86;65.34;99195.28;10432390;28;20505;-70
2022/12/08 08:58:51;;;;;;;11.35;6.55;;;;;;;3.99;65.16;99187.81;10428401;28;20413;-71
2022/12/08 09:03:54;;;;;;;13.95;7.78;;;;;;;4.08;65.19;99179.66;10430309;28;20051;-70
2022/12/08 09:08:56;;;;;;;13.20;7.88;;;;;;;4.17;64.73;99183.56;10434110;28;20056;-70
2022/12/08 09:13:57;;;;;;;13.25;6.43;;;;;;;4.16;64.73;99185.31;10428402;28;20045;-70
2022/12/08 09:18:59;;;;;;;11.75;6.30;;;;;;;4.24;64.67;99183.22;10426633;28;20412;-70
2022/12/08 09:24:01;;;;;;;10.45;6.00;;;;;;;4.28;64.38;99182.16;10437150;28;20492;-71
2022/12/08 09:29:02;;;;;;;9.27;6.07;;;;;;;4.27;64.29;99193.41;10428991;28;20501;-71
2022/12/08 09:34:04;;;;;;;8.82;5.80;;;;;;;4.36;64.22;99193.00;10433895;28;20041;-71
2022/12/08 09:39:06;;;;;;;9.07;5.47;;;;;;;4.31;63.99;99194.94;10427919;28;20048;-70
2022/12/08 09:44:29;;;;;;;9.05;6.07;;;;;;;4.41;63.87;99193.63;10434471;28;20037;-70
2022/12/08 09:49:46;;;;;;;10.05;5.47;;;;;;;4.38;63.50;99191.19;10441475;28;20056;-70
2022/12/08 09:54:48;;;;;;;8.30;5.05;;;;;;;4.51;63.51;99192.31;10423157;28;20052;-72
2022/12/08 09:59:58;;;;;;;12.10;8.70;;;;;;;4.55;62.72;99183.47;10456880;28;20432;-70
2022/12/08 10:05:00;;;;;;;9.30;5.20;;;;;;;4.49;63.39;99178.59;10433532;28;20055;-70
2022/12/08 10:10:32;;;;;;;8.77;5.38;;;;;;;4.50;62.97;99180.25;10428381;28;20059;-70
2022/12/08 10:15:45;;;;;;;7.38;4.88;;;;;;;4.53;63.23;99168.91;10436380;28;20053;-71
2022/12/08 10:20:51;;;;;;;9.40;5.57;;;;;;;4.56;62.95;99163.59;10429349;28;20097;-71
2022/12/08 10:26:06;;;;;;;10.88;6.25;;;;;;;4.79;62.27;99159.91;10426973;28;20045;-71
2022/12/08 10:31:19;;;;;;;11.40;6.05;;;;;;;4.72;62.39;99146.38;10428651;28;20067;-71
2022/12/08 10:36:21;;;;;;;9.90;5.90;;;;;;;4.67;62.52;99145.78;10420832;28;20127;-72
2022/12/08 10:41:23;;;;;;;8.88;5.57;;;;;;;4.52;62.75;99149.09;10436940;28;20060;-70
2022/12/08 10:46:27;;;;;;;8.50;5.53;;;;;;;4.57;62.79;99137.63;10437255;28;20409;-71
2022/12/08 10:51:32;;;;;;;8.20;5.38;;;;;;;4.68;62.54;99135.34;10447195;28;20052;-70
2022/12/08 10:56:33;;;;;;;8.38;5.82;;;;;;;4.69;62.37;99131.88;10433194;28;20056;-71
2022/12/08 11:01:38;;;;;;;9.32;5.20;;;;;;;4.55;62.50;99126.50;10434168;28;20072;-70
2022/12/08 11:06:41;;;;;;;7.28;5.03;;;;;;;4.37;62.64;99124.78;10424495;28;20052;-70
2022/12/08 11:11:59;;;;;;;8.75;5.15;;;;;;;4.24;62.43;99126.28;10426098;28;20060;-70
2022/12/08 11:17:05;;;;;;;9.60;4.60;;;;;;;4.22;62.80;99122.94;10460159;28;20048;-71
2022/12/08 11:22:26;;;;;;;10.07;4.85;;;;;;;4.04;62.56;99118.59;10432494;28;20040;-71
2022/12/08 11:27:28;;;;;;;9.02;4.85;;;;;;;4.17;62.83;99111.94;10429313;28;20061;-71
2022/12/08 11:32:29;;;;;;;9.15;4.88;;;;;;;4.45;62.65;99109.75;10426148;28;20511;-72
2022/12/08 11:37:42;;;;;;;10.23;4.82;;;;;;;4.62;62.15;99103.72;10424270;28;20055;-71
2022/12/08 11:42:55;;;;;;;9.10;4.72;;;;;;;4.88;61.91;99100.72;10440925;28;20053;-71
2022/12/08 11:48:08;;;;;;;7.57;4.80;;;;;;;5.06;61.87;99099.78;10423808;28;20436;-70
2022/12/08 11:53:21;;;;;;;8.55;5.10;;;;;;;5.19;61.57;99092.22;10427419;28;20056;-69
2022/12/08 11:58:36;;;;;;;8.77;5.18;;;;;;;5.45;60.95;99089.13;10422543;28;20045;-71
2022/12/08 12:03:45;;;;;;;10.90;5.10;;;;;;;5.50;60.16;99089.72;10434932;28;20047;-71
2022/12/08 12:09:13;;;;;;;9.98;5.30;;;;;;;5.28;60.03;99086.56;10429082;28;20041;-71
2022/12/08 12:14:27;;;;;;;9.60;6.22;;;;;;;5.44;60.14;99080.50;10421677;28;20052;-70
2022/12/08 12:19:34;;;;;;;6.65;5.03;;;;;;;5.18;60.69;99077.59;10424018;28;20057;-71
2022/12/08 12:24:37;;;;;;;8.02;4.72;;;;;;;5.07;60.75;99072.09;10436699;28;20049;-71
2022/12/08 12:29:47;;;;;;;8.48;5.60;;;;;;;5.14;60.21;99070.88;10431629;28;20056;-71
2022/12/08 12:34:59;;;;;;;9.35;5.50;;;;;;;5.02;60.72;99068.94;10432287;28;20051;-71
2022/12/08 12:40:06;;;;;;;7.97;4.63;;;;;;;5.17;60.36;99061.19;10431136;28;20456;-71
2022/12/08 12:45:20;;;;;;;7.53;4.43;;;;;;;5.10;60.48;99061.59;10441927;28;20102;-71
2022/12/08 12:50:42;;;;;;;6.85;4.68;;;;;;;4.96;59.97;99057.13;10431894;28;20049;-71
2022/12/08 12:55:49;;;;;;;;;;;;;;;4.72;60.37;99054.00;10440946;28;20906;-70
2022/12/08 13:01:15;;;;;;;8.05;5.13;;;;;;;4.90;60.04;99051.41;10428876;28;20287;-71
2022/12/08 13:06:24;;;;;;;8.95;5.57;;;;;;;4.89;60.55;99052.31;10450759;28;20051;-70
2022/12/08 13:11:26;;;;;;;8.43;5.80;;;;;;;5.03;60.43;99050.69;10432368;28;20512;-70
2022/12/08 13:16:31;;;;;;;8.00;5.25;;;;;;;5.18;59.66;99043.91;10429959;28;20056;-71
2022/12/08 13:21:38;;;;;;;8.50;4.68;;;;;;;5.17;59.85;99039.63;10432240;28;20041;-70
2022/12/08 13:27:02;;;;;;;6.78;4.50;;;;;;;5.35;59.44;99036.09;10430569;28;20057;-70
2022/12/08 13:32:42;;;;;;;7.78;5.07;;;;;;;5.34;58.54;99037.84;10429108;28;20044;-71
2022/12/08 13:38:06;;;;;;;8.98;5.90;;;;;;;5.26;59.12;99032.22;10429766;28;20057;-71
2022/12/08 13:43:28;;;;;;;8.85;4.40;;;;;;;5.17;58.86;99031.84;10435874;28;20056;-71
2022/12/08 13:48:53;;;;;;;6.45;4.55;;;;;;;5.23;59.44;99028.91;10433265;28;20610;-69
2022/12/08 13:54:28;;;;;;;7.95;4.13;;;;;;;5.34;58.75;99032.66;10454903;28;20088;-71
2022/12/08 13:59:49;;;;;;;6.82;4.82;;;;;;;5.30;59.59;99031.13;10431316;28;20155;-69
2022/12/08 14:04:51;;;;;;;6.45;3.95;;;;;;;5.28;59.46;99032.97;10430055;28;20053;-69
2022/12/08 14:10:21;;;;;;;10.95;5.57;;;;;;;5.34;59.15;99024.03;10429689;28;20149;-70
2022/12/08 14:15:24;;;;;;;7.53;4.43;;;;;;;5.27;59.36;99040.81;10427043;28;20445;-69
2022/12/08 14:20:31;;;;;;;6.97;4.80;;;;;;;5.04;59.19;99038.59;10429561;28;20052;-68
2022/12/08 14:25:46;;;;;;;9.25;4.75;;;;;;;4.92;59.35;99039.22;10428025;28;20141;-68
2022/12/08 14:30:49;;;;;;;6.25;4.32;;;;;;;4.71;59.71;99030.78;10426073;28;20075;-71
2022/12/08 14:35:53;;;;;;;13.32;4.40;;;;;;;4.76;59.59;99028.78;10424357;28;20049;-70
2022/12/08 14:41:04;;;;;;;6.57;3.40;;;;;;;4.87;59.20;99031.66;10431099;28;20056;-71
2022/12/08 14:46:21;;;;;;;8.15;5.10;;;;;;;4.82;58.31;99044.00;10427462;28;20404;-70
2022/12/08 14:51:30;;;;;;;7.43;4.40;;;;;;;4.81;59.70;99033.72;10428647;28;20115;-69
2022/12/08 14:56:53;;;;;;;6.15;4.22;;;;;;;4.62;60.17;99037.25;10420200;28;20052;-70
2022/12/08 15:02:18;;;;;;;6.50;4.07;;;;;;;4.63;60.22;99040.69;10423296;28;20092;-70
2022/12/08 15:07:23;;;;;;;4.10;2.55;;;;;;;4.52;59.77;99040.34;10440605;28;20049;-70
2022/12/08 15:12:30;;;;;;;6.00;3.47;;;;;;;4.46;59.63;99051.88;10425704;28;20535;-70
2022/12/08 15:17:33;;;;;;;5.30;3.38;;;;;;;4.41;60.08;99055.59;10437796;28;20356;-69
2022/12/08 15:22:35;;;;;;;7.72;4.50;;;;;;;4.39;60.26;99053.06;10427857;28;20045;-70
2022/12/08 15:27:37;;;;;;;6.07;3.55;;;;;;;4.41;60.16;99053.81;10422965;28;20056;-70
2022/12/08 15:32:52;;;;;;;7.55;4.10;;;;;;;4.48;60.51;99050.03;10427503;28;20202;-70
2022/12/08 15:37:54;;;;;;;29.75;10.50;;;;;;;4.47;60.30;99050.13;10421900;28;20485;-71
2022/12/08 15:42:56;;;;;;;13.73;8.63;;;;;;;4.44;60.58;99051.09;10422430;28;20052;-70
2022/12/08 15:47:58;;;;;;;9.93;6.10;;;;;;;4.34;60.61;99046.44;10433008;28;20413;-70
2022/12/08 15:53:00;;;;;;;13.52;6.70;;;;;;;4.24;60.69;99042.63;10432699;28;20049;-70
2022/12/08 15:58:01;;;;;;;12.18;8.95;;;;;;;4.22;61.01;99052.22;10423105;28;20059;-71
2022/12/08 16:03:28;;;;;;;12.27;8.55;;;;;;;4.14;61.50;99051.72;10422868;28;20237;-71
2022/12/08 16:08:50;;;;;;;10.68;7.28;;;;;;;4.11;61.66;99044.94;10422248;28;20513;-64
2022/12/08 16:14:11;;;;;;;8.55;6.10;;;;;;;4.06;61.57;99039.16;10426072;28;20130;-64
2022/12/08 16:19:32;;;;;;;;;;;;;;;3.65;62.52;99047.97;10427255;28;20037;-64
2022/12/08 16:24:34;;;;;;;11.05;7.25;;;;;;;3.82;62.32;99043.69;10426224;28;20320;-64
2022/12/08 16:29:36;;;;;;;8.95;6.20;;;;;;;3.92;62.23;99048.50;10428674;28;20053;-65
2022/12/08 16:34:38;;;;;;;11.57;6.78;;;;;;;3.88;62.31;99040.84;10425267;28;20638;-64
2022/12/08 16:39:40;;;;;;;11.75;5.57;;;;;;;3.93;62.37;99039.81;10423982;28;20057;-63
2022/12/08 16:44:46;;;;;;;9.73;5.43;;;;;;;3.93;62.05;99040.66;10423936;28;20096;-64
2022/12/08 16:49:48;;;;;;;6.28;4.55;;;;;;;3.85;62.13;99045.34;10422776;28;20501;-64
2022/12/08 16:54:50;;;;;;;7.07;4.88;;;;;;;3.65;62.54;99040.22;10429981;28;20088;-64
2022/12/08 16:59:51;;;;;;;7.90;5.18;;;;;;;3.72;62.70;99041.63;10422899;28;20620;-64
2022/12/08 17:04:53;;;;;;;22.38;14.05;;;;;;;3.86;62.39;99044.44;10421045;28;20045;-64
2022/12/08 17:09:55;;;;;;;17.45;10.35;;;;;;;3.77;62.68;99032.75;10425094;28;20456;-64
2022/12/08 17:14:56;;;;;;;12.68;9.02;;;;;;;3.62;62.97;99033.44;10438838;28;20053;-64
2022/12/08 17:19:58;;;;;;;8.80;6.45;;;;;;;3.53;63.17;99028.72;10429255;28;20417;-63
2022/12/08 17:25:04;;;;;;;10.05;7.07;;;;;;;3.44;63.59;99030.84;10429802;28;20048;-63
2022/12/08 17:30:10;;;;;;;17.55;11.45;;;;;;;3.46;63.43;99029.03;10433058;28;20057;-64
2022/12/08 17:35:13;;;;;;;16.35;11.77;;;;;;;3.40;63.73;99029.31;10437220;28;20049;-63
2022/12/08 17:40:14;;;;;;;23.98;16.42;;;;;;;3.39;63.69;99025.91;10430148;28;20060;-64
2022/12/08 17:45:16;;;;;;;19.42;12.43;;;;;;;3.38;63.58;99031.97;10432180;28;20064;-63
2022/12/08 17:50:18;;;;;;;12.32;9.48;;;;;;;3.32;63.53;99031.41;10431597;28;20049;-63
2022/12/08 17:55:19;;;;;;;12.52;8.77;;;;;;;3.28;63.62;99029.84;10429449;28;20490;-63
2022/12/08 18:00:21;;;;;;;21.08;11.68;;;;;;;3.43;63.57;99034.34;10429774;28;20048;-64
2022/12/08 18:05:23;;;;;;;51.80;26.88;;;;;;;3.50;63.37;99034.00;10430466;28;20049;-64
2022/12/08 18:10:25;;;;;;;19.50;13.60;;;;;;;3.55;62.98;99036.38;10431916;28;20053;-64
2022/12/08 18:15:27;;;;;;;12.23;8.40;;;;;;;3.68;62.95;99030.56;10430397;28;20059;-63
2022/12/08 18:20:29;;;;;;;15.40;9.68;;;;;;;3.82;62.65;99027.38;10429248;28;20605;-63
2022/12/08 18:25:30;;;;;;;22.17;13.45;;;;;;;3.72;62.35;99032.09;10430070;28;20072;-64
2022/12/08 18:30:32;;;;;;;17.35;11.50;;;;;;;3.70;63.04;99033.91;10429486;28;20053;-64
2022/12/08 18:35:34;;;;;;;25.67;17.55;;;;;;;3.59;63.27;99035.34;10424881;28;20072;-63
2022/12/08 18:40:35;;;;;;;36.70;21.65;;;;;;;3.53;63.14;99030.44;10428811;28;20083;-64
2022/12/08 18:45:38;;;;;;;32.10;21.20;;;;;;;3.53;63.08;99033.03;10423454;28;20044;-63
2022/12/08 18:50:43;;;;;;;27.65;16.73;;;;;;;3.53;62.98;99031.28;10427838;28;20520;-63
2022/12/08 18:55:46;;;;;;;19.08;11.98;;;;;;;3.47;63.04;99023.81;10429399;28;20110;-63
2022/12/08 19:00:48;;;;;;;17.77;12.25;;;;;;;3.37;63.29;99034.63;10427986;28;20041;-64
2022/12/08 19:06:01;;;;;;;14.43;9.77;;;;;;;3.34;63.08;99035.59;10430971;28;20386;-64
2022/12/08 19:11:03;;;;;;;15.23;11.57;;;;;;;3.45;63.01;99037.72;10436418;28;20394;-63
2022/12/08 19:16:05;;;;;;;19.85;12.85;;;;;;;3.42;63.01;99027.50;10428330;28;20516;-63
2022/12/08 19:21:07;;;;;;;11.82;7.75;;;;;;;3.55;63.14;99036.38;10425334;28;20339;-63
2022/12/08 19:26:10;;;;;;;12.80;8.85;;;;;;;3.58;63.03;99041.41;10424024;28;20048;-64
2022/12/08 19:31:11;;;;;;;15.50;9.13;;;;;;;3.60;63.22;99031.84;10428030;28;20502;-64
2022/12/08 19:36:17;;;;;;;11.57;8.30;;;;;;;3.57;62.84;99025.06;10423220;28;20127;-63
2022/12/08 19:46:39;;;;;;;17.42;11.07;;;;;;;3.40;63.21;99029.31;10432445;28;20044;-63
2022/12/08 19:51:41;;;;;;;17.92;11.65;;;;;;;3.29;63.19;99036.72;10424474;28;20088;-63
2022/12/08 19:56:43;;;;;;;12.35;8.75;;;;;;;3.29;62.79;99039.31;10430642;28;20497;-64
2022/12/08 20:01:46;;;;;;;9.98;6.45;;;;;;;3.38;62.72;99039.72;10425243;28;20048;-63
2022/12/08 20:06:49;;;;;;;10.35;7.40;;;;;;;3.42;62.40;99053.34;10425720;28;20075;-63
2022/12/08 20:11:53;;;;;;;26.30;13.05;;;;;;;3.43;62.54;99049.84;10424325;28;20527;-63
2022/12/08 20:16:55;;;;;;;22.20;11.35;;;;;;;3.31;62.45;99040.91;10424702;28;20048;-63
2022/12/08 20:21:57;;;;;;;13.65;9.02;;;;;;;3.37;62.21;99043.22;10422636;28;20060;-63
2022/12/08 20:26:58;;;;;;;13.52;8.60;;;;;;;3.36;62.90;99028.63;10422719;28;20075;-64
2022/12/08 20:32:00;;;;;;;10.25;7.70;;;;;;;3.45;62.85;99025.63;10425114;28;20056;-63
2022/12/08 20:37:02;;;;;;;12.10;8.23;;;;;;;3.37;62.66;99021.72;10430388;28;20095;-63
2022/12/08 20:42:03;;;;;;;12.18;8.50;;;;;;;3.18;63.18;99024.28;10422417;28;20055;-63
2022/12/08 20:47:05;;;;;;;10.88;8.38;;;;;;;3.23;63.43;99024.91;10435325;28;20683;-63
2022/12/08 20:52:07;;;;;;;13.10;8.52;;;;;;;3.42;63.33;99032.66;10430939;28;20397;-63
2022/12/08 20:57:10;;;;;;;12.23;8.90;;;;;;;3.49;63.10;99040.09;10438103;28;20048;-63
2022/12/08 21:02:12;;;;;;;13.00;8.77;;;;;;;3.54;62.92;99039.84;10432364;28;20461;-63
2022/12/08 21:07:14;;;;;;;14.35;10.32;;;;;;;3.54;62.64;99040.69;10440312;28;20162;-63
2022/12/08 21:12:16;;;;;;;24.20;15.27;;;;;;;3.38;63.07;99031.97;10439522;28;20049;-63
2022/12/08 21:17:18;;;;;;;20.38;14.20;;;;;;;3.34;63.51;99042.50;10429084;28;20500;-64
2022/12/08 21:22:20;;;;;;;19.63;12.95;;;;;;;3.37;63.46;99037.22;10437045;28;20088;-64
2022/12/08 21:27:22;;;;;;;16.42;10.50;;;;;;;3.38;63.35;99039.72;10429839;28;20057;-64
2022/12/08 21:32:24;;;;;;;15.35;10.13;;;;;;;3.40;63.39;99042.22;10441790;28;20056;-64
2022/12/08 21:37:32;;;;;;;19.02;11.38;;;;;;;3.36;63.16;99043.28;10436359;28;20115;-64
2022/12/08 21:42:42;;;;;;;17.17;12.10;;;;;;;3.29;63.28;99044.47;10435364;28;20049;-63
2022/12/08 21:47:46;;;;;;;17.52;12.63;;;;;;;3.30;63.41;99039.22;10432448;28;20055;-64
2022/12/08 21:52:48;;;;;;;19.27;12.00;;;;;;;3.35;63.58;99037.28;10451030;28;20514;-63
2022/12/08 21:57:50;;;;;;;19.98;13.45;;;;;;;3.29;63.51;99031.56;10429824;28;20061;-63
2022/12/08 22:02:52;;;;;;;20.75;13.88;;;;;;;3.21;63.85;99041.38;10430943;28;20148;-65
2022/12/08 22:07:54;;;;;;;18.08;13.07;;;;;;;3.21;63.89;99043.97;10432937;28;20049;-63
2022/12/08 22:12:56;;;;;;;20.75;13.85;;;;;;;3.10;64.03;99041.00;10430352;28;20395;-63
2022/12/08 22:17:58;;;;;;;20.00;13.63;;;;;;;3.03;64.32;99048.19;10454735;28;20056;-63
2022/12/08 22:22:59;;;;;;;17.45;11.98;;;;;;;3.12;64.34;99050.38;10431052;28;20417;-63
2022/12/08 22:28:02;;;;;;;17.50;12.63;;;;;;;3.19;64.16;99050.94;10470538;28;20051;-65
2022/12/08 22:33:04;;;;;;;18.58;13.10;;;;;;;3.12;64.42;99046.94;10441114;28;20822;-63
2022/12/08 22:38:06;;;;;;;17.23;12.00;;;;;;;3.13;64.45;99046.88;10448146;28;20045;-64
2022/12/08 22:43:08;;;;;;;19.83;12.70;;;;;;;3.07;64.79;99040.22;10428677;28;20414;-63
2022/12/08 22:48:09;;;;;;;26.27;18.10;;;;;;;3.05;64.86;99039.47;10429170;28;20363;-63
2022/12/08 22:53:12;;;;;;;44.30;27.35;;;;;;;3.10;64.76;99035.84;10428068;28;20302;-63
2022/12/08 22:58:14;;;;;;;57.25;33.88;;;;;;;3.12;64.80;99032.28;10436824;28;20059;-64
2022/12/08 23:03:16;;;;;;;60.50;35.53;;;;;;;3.12;64.62;99028.84;10469626;28;20043;-63
2022/12/08 23:08:18;;;;;;;39.47;24.58;;;;;;;3.02;64.61;99033.59;10429832;28;20056;-64
2022/12/08 23:13:20;;;;;;;20.90;13.38;;;;;;;3.04;64.78;99024.88;10428273;28;20512;-64
2022/12/08 23:18:22;;;;;;;15.77;10.52;;;;;;;3.02;64.55;99028.44;10438054;28;20041;-63
2022/12/08 23:23:23;;;;;;;21.48;14.25;;;;;;;2.96;64.57;99032.13;10427781;28;20060;-63
2022/12/08 23:28:25;;;;;;;21.92;13.82;;;;;;;2.95;64.67;99030.44;10426970;28;20115;-64
2022/12/08 23:33:27;;;;;;;21.00;14.07;;;;;;;2.93;64.95;99023.66;10426298;28;20059;-64
2022/12/08 23:38:28;;;;;;;19.27;13.38;;;;;;;2.96;65.11;99015.78;10427656;28;20048;-64
2022/12/08 23:43:30;;;;;;;14.77;10.07;;;;;;;2.99;65.07;99018.22;10431883;28;20045;-63
2022/12/08 23:48:33;;;;;;;14.15;9.95;;;;;;;2.96;64.61;99018.38;10434253;28;20576;-64
2022/12/08 23:53:35;;;;;;;17.05;10.30;;;;;;;2.73;65.19;99013.34;10425644;28;20128;-64